Time;durP1;ratioP1;P1;durP2;ratioP2;P2;SDS_P1;SDS_P2;PMS_P1;PMS_P2;Temp;Humidity;BMP_temperature;BMP_pressure;BME280_temperature;BME280_humidity;BME280_pressure;Samples;Min_cycle;Max_cycle;Signal;HPM_P1;HPM_P2
2022/04/05 00:01:59;;;;;;;21.87;8.57;;;6.40;99.90;;;;;;4992265;28;20074;-84
2022/04/05 00:04:24;;;;;;;15.20;5.33;;;7.70;99.90;;;;;;4974895;28;20054;-84
2022/04/05 00:06:50;;;;;;;14.33;4.90;;;6.30;99.90;;;;;;4993039;28;20101;-84
2022/04/05 00:09:16;;;;;;;9.23;3.20;;;6.30;99.90;;;;;;4992990;28;20054;-85
2022/04/05 00:11:41;;;;;;;12.93;3.40;;;6.30;99.90;;;;;;5014742;28;20058;-83
2022/04/05 00:14:08;;;;;;;10.87;3.47;;;6.30;99.90;;;;;;5010067;28;20073;-84
2022/04/05 00:16:34;;;;;;;11.83;3.10;;;6.40;99.90;;;;;;4995648;28;20517;-85
2022/04/05 00:19:00;;;;;;;13.67;3.00;;;6.40;99.90;;;;;;4996810;28;20050;-85
2022/04/05 00:21:25;;;;;;;13.97;3.27;;;7.10;99.90;;;;;;4996146;28;20088;-85
2022/04/05 00:23:51;;;;;;;11.13;3.50;;;6.40;99.90;;;;;;4996153;28;20054;-85
2022/04/05 00:26:19;;;;;;;10.97;3.40;;;7.30;99.90;;;;;;4995143;28;20065;-84
2022/04/05 00:28:54;;;;;;;12.63;3.60;;;6.30;99.90;;;;;;4995754;28;20494;-84
2022/04/05 00:31:19;;;;;;;13.77;4.53;;;6.10;99.90;;;;;;4995550;28;20129;-85
2022/04/05 00:33:57;;;;;;;11.60;3.30;;;6.30;99.90;;;;;;4995752;28;20162;-85
2022/04/05 00:36:23;;;;;;;10.47;2.87;;;6.20;99.90;;;;;;4995019;28;20133;-85
2022/04/05 00:38:48;;;;;;;10.17;2.90;;;6.20;99.90;;;;;;4995669;28;20125;-85
2022/04/05 00:41:14;;;;;;;10.80;2.77;;;6.30;99.90;;;;;;4996321;28;20504;-84
2022/04/05 00:43:45;;;;;;;7.83;2.40;;;6.30;99.90;;;;;;4995926;28;20050;-85
2022/04/05 00:46:14;;;;;;;11.20;2.47;;;6.40;99.90;;;;;;4995560;28;20042;-85
2022/04/05 00:48:59;;;;;;;9.97;2.63;;;6.50;99.90;;;;;;4994918;28;20070;-85
2022/04/05 00:51:28;;;;;;;8.77;2.50;;;6.20;99.90;;;;;;4995808;28;20112;-85
2022/04/05 00:53:57;;;;;;;10.60;2.60;;;7.50;99.90;;;;;;4995321;28;20126;-85
2022/04/05 00:56:27;;;;;;;9.70;2.37;;;6.10;99.90;;;;;;4994481;28;20046;-85
2022/04/05 00:59:01;;;;;;;9.33;2.47;;;6.10;99.90;;;;;;4995844;28;20053;-85
2022/04/05 01:01:28;;;;;;;10.52;2.60;;;6.20;99.90;;;;;;4995612;28;20068;-85
2022/04/05 01:03:54;;;;;;;8.63;2.43;;;6.20;99.90;;;;;;4995843;28;20093;-85
2022/04/05 01:06:25;;;;;;;8.53;2.10;;;6.10;99.90;;;;;;4994743;28;20050;-85
2022/04/05 01:08:57;;;;;;;9.00;2.30;;;7.10;99.90;;;;;;4995044;28;20088;-84
2022/04/05 01:11:23;;;;;;;9.50;2.33;;;6.10;99.90;;;;;;4995641;28;20043;-85
2022/04/05 01:13:49;;;;;;;7.83;2.00;;;6.20;99.90;;;;;;4995192;28;20084;-85
2022/04/05 01:16:18;;;;;;;7.73;2.00;;;7.00;99.90;;;;;;4994834;28;20082;-85
2022/04/05 01:18:44;;;;;;;9.50;1.87;;;6.10;99.90;;;;;;5015183;28;20100;-85
2022/04/05 01:21:10;;;;;;;7.13;2.07;;;6.20;99.90;;;;;;5014240;28;20050;-85
2022/04/05 01:23:35;;;;;;;8.20;2.20;;;6.10;99.90;;;;;;5015056;28;20061;-85
2022/04/05 01:26:01;;;;;;;7.80;1.97;;;5.90;99.90;;;;;;5014320;28;20038;-86
2022/04/05 01:28:27;;;;;;;6.13;1.70;;;4.70;99.90;;;;;;4996582;28;20096;-85
2022/04/05 01:30:53;;;;;;;10.83;2.13;;;6.00;99.90;;;;;;5015001;28;20042;-85
2022/04/05 01:33:19;;;;;;;7.53;2.20;;;6.10;99.90;;;;;;5014988;28;20371;-85
2022/04/05 01:35:45;;;;;;;9.63;2.10;;;6.70;99.90;;;;;;4996556;28;20485;-85
2022/04/05 01:38:12;;;;;;;9.47;2.30;;;6.20;99.90;;;;;;5014598;28;20569;-85
2022/04/05 01:40:38;;;;;;;7.77;1.93;;;5.90;99.90;;;;;;5015068;28;20056;-85
2022/04/05 01:43:04;;;;;;;7.00;1.90;;;6.00;99.90;;;;;;4996885;28;20045;-85
2022/04/05 01:45:30;;;;;;;8.83;2.20;;;7.40;99.90;;;;;;5014679;28;20088;-85
2022/04/05 01:47:56;;;;;;;10.13;2.20;;;6.00;99.90;;;;;;5014823;28;20049;-85
2022/04/05 01:50:22;;;;;;;9.93;2.10;;;5.90;99.90;;;;;;5013444;28;20437;-84
2022/04/05 01:52:48;;;;;;;9.70;2.20;;;6.80;99.90;;;;;;4997192;28;20053;-84
2022/04/05 01:55:13;;;;;;;7.83;2.00;;;6.50;99.90;;;;;;4996553;28;20041;-85
2022/04/05 01:57:39;;;;;;;8.87;1.80;;;5.80;99.90;;;;;;5013635;28;20034;-85
2022/04/05 02:00:14;;;;;;;8.83;1.97;;;5.90;99.90;;;;;;4997007;28;20041;-84
2022/04/05 02:02:43;;;;;;;6.83;1.80;;;6.00;99.90;;;;;;4996219;28;20060;-85
2022/04/05 02:05:10;;;;;;;8.43;2.23;;;6.20;99.90;;;;;;4996560;28;20045;-85
2022/04/05 02:07:36;;;;;;;8.20;1.80;;;5.90;99.90;;;;;;5014499;28;20379;-85
2022/04/05 02:10:03;;;;;;;7.87;2.07;;;5.90;99.90;;;;;;5013686;28;20053;-84
2022/04/05 02:12:28;;;;;;;8.37;2.00;;;6.00;99.90;;;;;;5013980;28;20117;-84
2022/04/05 02:14:54;;;;;;;7.47;2.00;;;5.90;99.90;;;;;;5014447;28;20585;-84
2022/04/05 02:17:19;;;;;;;9.30;1.90;;;5.90;99.90;;;;;;5012762;28;20398;-84
2022/04/05 02:19:45;;;;;;;11.47;2.40;;;6.00;99.90;;;;;;4996250;28;20057;-85
2022/04/05 02:22:11;;;;;;;11.70;2.23;;;5.80;99.90;;;;;;5013530;28;20041;-84
2022/04/05 02:24:36;;;;;;;8.80;2.00;;;5.80;99.90;;;;;;4995853;28;20127;-84
2022/04/05 02:27:02;;;;;;;11.83;2.30;;;5.40;99.90;;;;;;4996181;28;20038;-84
2022/04/05 02:29:28;;;;;;;10.27;2.20;;;5.90;99.90;;;;;;5013644;28;20050;-84
2022/04/05 02:31:54;;;;;;;7.33;2.00;;;5.80;99.90;;;;;;5013073;28;20121;-85
2022/04/05 02:34:19;;;;;;;10.77;2.30;;;5.60;99.90;;;;;;5013685;28;20046;-84
2022/04/05 02:36:47;;;;;;;7.03;2.10;;;5.80;99.90;;;;;;4996746;28;20095;-84
2022/04/05 02:39:13;;;;;;;7.80;2.00;;;6.40;99.90;;;;;;4995093;28;20136;-84
2022/04/05 02:41:39;;;;;;;11.37;2.20;;;5.90;99.90;;;;;;5013577;28;20117;-84
2022/04/05 02:44:06;;;;;;;9.20;2.10;;;5.70;99.90;;;;;;5013680;28;20046;-84
2022/04/05 02:46:32;;;;;;;10.20;1.90;;;5.80;99.90;;;;;;4995164;28;20053;-85
2022/04/05 02:48:58;;;;;;;10.13;2.17;;;5.90;99.90;;;;;;5014090;28;20430;-85
2022/04/05 02:51:24;;;;;;;10.77;2.10;;;6.50;99.90;;;;;;5013601;28;20038;-84
2022/04/05 02:53:49;;;;;;;8.70;2.30;;;5.70;99.90;;;;;;5012968;28;20061;-84
2022/04/05 02:56:15;;;;;;;11.60;2.40;;;5.60;99.90;;;;;;5013146;28;20063;-84
2022/04/05 02:58:41;;;;;;;9.33;2.30;;;5.80;99.90;;;;;;4995363;28;20046;-85
2022/04/05 03:01:07;;;;;;;9.67;2.17;;;5.70;99.90;;;;;;5013663;28;20549;-85
2022/04/05 03:03:33;;;;;;;11.27;2.63;;;5.80;99.90;;;;;;4995796;28;20084;-85
2022/04/05 03:05:59;;;;;;;7.33;2.03;;;6.00;99.90;;;;;;5012745;28;20041;-84
2022/04/05 03:08:25;;;;;;;8.87;2.40;;;5.90;99.90;;;;;;4995604;28;20050;-84
2022/04/05 03:10:52;;;;;;;9.77;2.20;;;5.90;99.90;;;;;;5013427;28;20037;-85
2022/04/05 03:13:18;;;;;;;8.23;2.10;;;5.90;99.90;;;;;;5012222;28;20494;-85
2022/04/05 03:15:44;;;;;;;9.57;2.73;;;5.90;99.90;;;;;;5013458;28;20050;-85
2022/04/05 03:18:09;;;;;;;8.40;2.17;;;5.90;99.90;;;;;;5013218;28;20136;-85
2022/04/05 03:20:35;;;;;;;9.87;2.70;;;5.80;99.90;;;;;;5012262;28;20086;-85
2022/04/05 03:23:00;;;;;;;10.83;2.80;;;5.70;99.90;;;;;;5013227;28;20049;-85
2022/04/05 03:25:27;;;;;;;8.40;1.93;;;5.90;99.90;;;;;;5012871;28;20045;-85
2022/04/05 03:27:53;;;;;;;8.83;2.30;;;5.90;99.90;;;;;;5011886;28;20486;-84
2022/04/05 03:30:22;;;;;;;9.90;2.13;;;5.80;99.90;;;;;;5013101;28;20046;-85
2022/04/05 03:32:48;;;;;;;8.33;2.23;;;5.80;99.90;;;;;;5012936;28;20042;-85
2022/04/05 03:35:14;;;;;;;11.20;2.30;;;5.90;99.90;;;;;;5011925;28;20522;-85
2022/04/05 03:37:47;;;;;;;8.30;2.10;;;6.00;99.90;;;;;;5012880;28;20081;-85
2022/04/05 03:40:13;;;;;;;8.97;2.10;;;5.80;99.90;;;;;;4995064;28;20132;-85
2022/04/05 03:42:39;;;;;;;10.37;2.40;;;6.30;99.90;;;;;;5012432;28;20038;-85
2022/04/05 03:45:05;;;;;;;10.97;2.50;;;5.90;99.90;;;;;;5013176;28;20129;-85
2022/04/05 03:47:31;;;;;;;9.87;2.70;;;5.90;99.90;;;;;;5012874;28;20092;-85
2022/04/05 03:50:08;;;;;;;10.40;2.40;;;5.90;99.90;;;;;;5014613;28;20042;-85
2022/04/05 03:52:34;;;;;;;8.70;2.30;;;6.00;99.90;;;;;;5016312;28;20077;-84
2022/04/05 03:54:59;;;;;;;9.93;2.40;;;5.90;99.90;;;;;;4998751;28;20489;-84
2022/04/05 03:57:25;;;;;;;9.53;2.40;;;6.50;99.90;;;;;;5016321;28;20045;-85
2022/04/05 03:59:50;;;;;;;10.07;2.33;;;5.90;99.90;;;;;;4999326;28;20054;-85
2022/04/05 04:02:17;;;;;;;10.30;2.57;;;5.90;99.90;;;;;;5015283;28;20045;-84
2022/04/05 04:04:43;;;;;;;11.50;2.23;;;5.90;99.90;;;;;;5015994;28;20050;-85
2022/04/05 04:07:08;;;;;;;11.20;2.40;;;6.00;99.90;;;;;;5016341;28;20041;-85
2022/04/05 04:09:34;;;;;;;10.70;2.50;;;6.00;99.90;;;;;;5015379;28;20409;-85
2022/04/05 04:12:00;;;;;;;10.77;2.67;;;6.00;99.90;;;;;;5016189;28;20115;-85
2022/04/05 04:14:25;;;;;;;13.37;2.70;;;5.90;99.90;;;;;;5016042;28;20422;-85
2022/04/05 04:16:51;;;;;;;12.30;2.70;;;5.90;99.90;;;;;;4997859;28;20053;-84
2022/04/05 04:19:16;;;;;;;9.47;2.63;;;6.00;99.90;;;;;;5016298;28;20060;-84
2022/04/05 04:21:42;;;;;;;11.57;2.70;;;5.90;99.90;;;;;;5016176;28;20057;-84
2022/04/05 04:24:08;;;;;;;10.30;3.03;;;6.00;99.90;;;;;;4998312;28;20129;-84
2022/04/05 04:26:33;;;;;;;10.30;2.60;;;5.80;99.90;;;;;;5016176;28;20037;-84
2022/04/05 04:29:02;;;;;;;10.73;3.03;;;5.90;99.90;;;;;;5016492;28;20477;-85
2022/04/05 04:31:28;;;;;;;9.63;3.07;;;6.00;99.90;;;;;;5015283;28;20042;-84
2022/04/05 04:33:53;;;;;;;13.13;3.30;;;5.90;99.90;;;;;;5016120;28;20042;-85
2022/04/05 04:36:19;;;;;;;12.23;3.37;;;5.90;99.90;;;;;;4998133;28;20054;-84
2022/04/05 04:38:45;;;;;;;14.83;3.73;;;6.00;99.90;;;;;;5015270;28;20037;-84
2022/04/05 04:41:12;;;;;;;13.77;3.47;;;6.00;99.90;;;;;;5015854;28;20458;-84
2022/04/05 04:43:38;;;;;;;9.53;3.10;;;6.00;99.90;;;;;;4998470;28;20477;-84
2022/04/05 04:46:04;;;;;;;16.50;3.50;;;6.00;99.90;;;;;;5015229;28;20454;-84
2022/04/05 04:48:30;;;;;;;12.10;3.50;;;6.10;99.90;;;;;;5015143;28;20121;-85
2022/04/05 04:50:56;;;;;;;14.27;3.77;;;6.00;99.90;;;;;;5015666;28;20050;-84
2022/04/05 04:53:22;;;;;;;14.70;3.90;;;6.00;99.90;;;;;;4997373;28;20164;-84
2022/04/05 04:55:48;;;;;;;14.90;4.20;;;6.00;99.90;;;;;;5015486;28;20128;-85
2022/04/05 04:58:14;;;;;;;13.37;3.97;;;6.10;99.90;;;;;;5014515;28;20201;-84
2022/04/05 05:00:40;;;;;;;10.60;3.90;;;6.00;99.90;;;;;;5014335;28;20486;-84
2022/04/05 05:03:05;;;;;;;12.67;4.33;;;6.00;99.90;;;;;;5015464;28;20045;-84
2022/04/05 05:05:31;;;;;;;15.47;4.30;;;5.90;99.90;;;;;;4996948;28;20487;-84
2022/04/05 05:07:56;;;;;;;12.93;3.87;;;5.90;99.90;;;;;;5015732;28;20041;-84
2022/04/05 05:10:23;;;;;;;11.67;4.10;;;6.10;99.90;;;;;;5014874;28;20555;-84
2022/04/05 05:12:49;;;;;;;11.73;4.10;;;6.10;99.90;;;;;;5014620;28;20485;-84
2022/04/05 05:15:18;;;;;;;14.93;4.93;;;5.90;99.90;;;;;;4997492;28;20073;-84
2022/04/05 05:17:46;;;;;;;19.57;5.10;;;6.00;99.90;;;;;;5015239;28;20049;-84
2022/04/05 05:20:12;;;;;;;13.57;5.20;;;6.10;99.90;;;;;;5014194;28;20077;-84
2022/04/05 05:22:39;;;;;;;13.70;5.17;;;6.10;99.90;;;;;;4997647;28;20065;-84
2022/04/05 05:25:06;;;;;;;16.87;5.43;;;6.00;99.90;;;;;;4997584;28;20046;-84
2022/04/05 05:27:32;;;;;;;15.67;5.17;;;6.00;99.90;;;;;;5014047;28;20473;-84
2022/04/05 05:29:57;;;;;;;15.77;5.37;;;6.00;99.90;;;;;;5015095;28;20057;-84
2022/04/05 05:32:23;;;;;;;19.07;5.73;;;6.00;99.90;;;;;;5014670;28;20041;-85
2022/04/05 05:34:49;;;;;;;16.27;5.53;;;6.20;99.90;;;;;;5014395;28;20102;-84
2022/04/05 05:37:14;;;;;;;16.13;5.50;;;6.10;99.90;;;;;;5015022;28;20437;-84
2022/04/05 05:39:40;;;;;;;15.13;6.30;;;6.10;99.90;;;;;;4997331;28;20053;-84
2022/04/05 05:42:07;;;;;;;19.67;6.07;;;6.00;99.90;;;;;;5014056;28;20045;-84
2022/04/05 05:44:34;;;;;;;15.77;5.60;;;6.10;99.90;;;;;;5014444;28;20100;-84
2022/04/05 05:47:01;;;;;;;15.53;5.73;;;6.00;99.90;;;;;;4997080;28;20477;-84
2022/04/05 05:49:26;;;;;;;16.50;6.00;;;6.20;99.90;;;;;;5013533;28;20128;-84
2022/04/05 05:51:52;;;;;;;16.57;5.47;;;6.20;99.90;;;;;;4996852;28;20137;-84
2022/04/05 05:54:19;;;;;;;15.00;5.00;;;6.20;99.90;;;;;;5014106;28;20046;-84
2022/04/05 05:56:44;;;;;;;13.73;4.97;;;6.10;99.90;;;;;;5014026;28;20045;-87
2022/04/05 05:59:10;;;;;;;13.13;5.00;;;6.20;99.90;;;;;;5014149;28;20042;-87
2022/04/05 06:01:36;;;;;;;16.43;4.70;;;6.20;99.90;;;;;;4996392;28;20132;-91
2022/04/05 06:04:02;;;;;;;14.27;5.03;;;6.20;99.90;;;;;;4996758;28;20042;-87
2022/04/05 06:06:29;;;;;;;12.80;4.70;;;6.20;99.90;;;;;;4996964;28;20046;-91
2022/04/05 06:08:55;;;;;;;13.97;5.10;;;6.30;99.90;;;;;;4996873;28;20061;-91
2022/04/05 06:11:22;;;;;;;12.00;4.40;;;6.20;99.90;;;;;;5013614;28;20056;-87
2022/04/05 06:13:48;;;;;;;17.23;5.17;;;6.40;99.90;;;;;;4996655;28;20100;-87
2022/04/05 06:16:15;;;;;;;12.53;4.47;;;6.30;99.90;;;;;;4995504;28;20045;-86
2022/04/05 06:18:42;;;;;;;15.63;4.77;;;6.40;99.90;;;;;;5014317;28;20042;-87
2022/04/05 06:21:08;;;;;;;12.37;4.40;;;6.40;99.90;;;;;;5014037;28;20046;-86
2022/04/05 06:23:34;;;;;;;12.20;4.40;;;6.50;99.90;;;;;;5013316;28;20056;-87
2022/04/05 06:26:00;;;;;;;11.97;4.30;;;6.40;99.90;;;;;;4996665;28;20088;-86
2022/04/05 06:28:25;;;;;;;15.03;4.47;;;6.40;99.90;;;;;;5013942;28;20056;-96
2022/04/05 06:30:51;;;;;;;12.43;4.03;;;6.50;99.90;;;;;;4992799;28;20489;-91
2022/04/05 06:33:20;;;;;;;15.40;7.13;;;6.30;99.90;;;;;;4979516;28;20097;-92
2022/04/05 06:35:48;;;;;;;22.80;12.03;;;6.50;99.90;;;;;;4995989;28;20050;-92
2022/04/05 06:38:14;;;;;;;14.27;5.67;;;6.50;99.90;;;;;;4998985;28;20046;-92
2022/04/05 06:40:43;;;;;;;13.17;4.90;;;7.30;99.90;;;;;;4994314;28;20050;-91
2022/04/05 06:43:10;;;;;;;15.37;8.73;;;6.40;99.90;;;;;;4994238;28;20430;-91
2022/04/05 06:45:37;;;;;;;26.70;15.17;;;6.40;99.90;;;;;;4975999;28;20050;-92
2022/04/05 06:48:03;;;;;;;13.00;5.67;;;6.40;99.90;;;;;;4994324;28;20038;-93
2022/04/05 06:50:29;;;;;;;14.27;5.70;;;6.50;99.90;;;;;;4994246;28;20128;-92
2022/04/05 06:52:57;;;;;;;25.57;13.00;;;6.30;99.90;;;;;;4993624;28;20174;-92
2022/04/05 06:55:23;;;;;;;15.37;8.00;;;6.50;99.90;;;;;;4994058;28;20039;-91
2022/04/05 06:57:49;;;;;;;14.97;8.60;;;6.60;99.90;;;;;;4976518;28;20131;-93
2022/04/05 07:00:17;;;;;;;13.93;7.47;;;6.70;99.90;;;;;;4976542;28;20077;-93
2022/04/05 07:02:43;;;;;;;10.73;2.90;;;6.60;99.90;;;;;;4994075;28;20054;-90
2022/04/05 07:05:10;;;;;;;13.20;7.57;;;7.20;99.90;;;;;;4993865;28;20375;-91
2022/04/05 07:07:37;;;;;;;11.07;3.77;;;6.50;99.90;;;;;;4980666;28;20093;-89
2022/04/05 07:10:04;;;;;;;16.93;8.00;;;6.50;99.90;;;;;;4982068;28;20049;-93
2022/04/05 07:12:31;;;;;;;12.73;3.73;;;6.70;99.90;;;;;;4976902;28;20057;-90
2022/04/05 07:14:57;;;;;;;19.20;9.10;;;6.70;99.90;;;;;;4978143;28;20058;-88
2022/04/05 07:17:23;;;;;;;14.90;5.53;;;6.80;99.90;;;;;;4993162;28;20081;-90
2022/04/05 07:19:48;;;;;;;10.63;3.20;;;7.60;99.90;;;;;;4993002;28;20050;-89
2022/04/05 07:22:14;;;;;;;11.00;2.73;;;6.80;99.90;;;;;;4994705;28;20034;-88
2022/04/05 07:24:40;;;;;;;18.23;6.73;;;6.80;99.90;;;;;;4984069;28;20143;-87
2022/04/05 07:27:05;;;;;;;25.20;11.83;;;6.90;99.90;;;;;;4999641;28;20042;-87
2022/04/05 07:29:31;;;;;;;16.73;7.10;;;7.50;99.90;;;;;;4981517;28;20046;-91
2022/04/05 07:31:56;;;;;;;31.43;12.90;;;7.00;99.90;;;;;;4994133;28;20046;-86
2022/04/05 07:34:22;;;;;;;17.53;8.37;;;7.00;99.90;;;;;;4992348;28;20053;-87
2022/04/05 07:36:48;;;;;;;11.27;3.77;;;7.00;99.90;;;;;;4993409;28;20482;-87
2022/04/05 07:39:13;;;;;;;18.07;7.67;;;6.90;99.90;;;;;;4975695;28;20481;-88
2022/04/05 07:41:39;;;;;;;12.03;3.70;;;7.00;99.90;;;;;;4992487;28;20046;-87
2022/04/05 07:44:05;;;;;;;23.97;11.67;;;7.20;99.90;;;;;;4975809;28;20508;-87
2022/04/05 07:46:31;;;;;;;33.67;14.63;;;7.20;99.90;;;;;;4993226;28;20082;-87
2022/04/05 07:48:56;;;;;;;21.20;8.37;;;8.30;99.90;;;;;;4974960;28;20085;-87
2022/04/05 07:51:22;;;;;;;10.70;3.50;;;7.10;99.90;;;;;;4975654;28;20105;-87
2022/04/05 07:53:48;;;;;;;33.30;14.05;;;7.10;99.90;;;;;;4993245;28;20056;-87
2022/04/05 07:56:14;;;;;;;18.97;6.60;;;7.20;99.90;;;;;;4974460;28;20113;-87
2022/04/05 07:58:42;;;;;;;26.80;10.07;;;8.50;99.90;;;;;;4995284;28;20046;-90
2022/04/05 08:01:09;;;;;;;19.50;8.17;;;8.00;99.90;;;;;;4992673;28;20101;-89
2022/04/05 08:03:35;;;;;;;12.20;4.50;;;7.50;99.90;;;;;;4992935;28;20383;-92
2022/04/05 08:06:01;;;;;;;13.17;4.73;;;7.60;99.90;;;;;;4994143;28;20108;-91
2022/04/05 08:08:26;;;;;;;10.70;2.90;;;8.80;99.90;;;;;;4991966;28;20050;-89
2022/04/05 08:10:52;;;;;;;24.17;10.10;;;7.60;99.90;;;;;;4975453;28;20057;-90
2022/04/05 08:13:18;;;;;;;15.47;5.70;;;7.60;99.90;;;;;;4993381;28;20042;-88
2022/04/05 08:15:47;;;;;;;21.52;8.07;;;7.60;99.90;;;;;;4999826;28;20136;-88
2022/04/05 08:18:12;;;;;;;26.40;11.03;;;8.80;99.90;;;;;;4994707;28;20065;-89
2022/04/05 08:20:41;;;;;;;12.97;4.63;;;8.20;99.90;;;;;;4974598;28;20046;-89
2022/04/05 08:23:07;;;;;;;18.63;7.07;;;7.80;99.90;;;;;;4991665;28;20050;-90
2022/04/05 08:25:33;;;;;;;24.47;9.07;;;7.70;99.90;;;;;;4992685;28;20049;-88
2022/04/05 08:27:59;;;;;;;9.32;2.65;;;8.50;99.90;;;;;;4992920;28;20038;-90
2022/04/05 08:30:25;;;;;;;11.52;3.25;;;7.60;99.90;;;;;;4974869;28;20042;-90
2022/04/05 08:32:50;;;;;;;11.00;2.67;;;8.80;99.90;;;;;;4992501;28;20046;-91
2022/04/05 08:35:26;;;;;;;23.67;9.90;;;7.50;99.90;;;;;;4993856;28;20042;-90
2022/04/05 08:38:00;;;;;;;10.27;3.43;;;7.70;99.90;;;;;;4978437;28;20133;-90
2022/04/05 08:40:26;;;;;;;7.68;2.10;;;7.50;99.90;;;;;;4978848;28;20510;-89
2022/04/05 08:42:55;;;;;;;13.55;5.63;;;7.60;99.90;;;;;;4983208;28;20107;-90
2022/04/05 08:45:42;;;;;;;8.82;2.30;;;7.60;99.90;;;;;;4978595;28;20094;-87
2022/04/05 08:48:14;;;;;;;7.53;2.10;;;7.80;99.90;;;;;;4979868;28;20046;-91
2022/04/05 08:50:46;;;;;;;7.10;2.15;;;7.90;99.90;;;;;;4995810;28;20050;-90
2022/04/05 08:53:21;;;;;;;9.70;3.03;;;8.50;99.90;;;;;;4996324;28;20042;-91
2022/04/05 08:55:46;;;;;;;13.00;5.37;;;9.00;99.90;;;;;;4978809;28;20081;-89
2022/04/05 08:58:21;;;;;;;9.55;2.95;;;8.10;99.90;;;;;;4994785;28;20074;-90
2022/04/05 09:00:47;;;;;;;12.43;7.93;;;8.10;99.90;;;;;;4996111;28;20050;-89
2022/04/05 09:03:13;;;;;;;9.48;4.97;;;8.10;99.90;;;;;;4995714;28;20046;-88
2022/04/05 09:05:47;;;;;;;15.80;13.73;;;8.30;99.90;;;;;;4995097;28;20521;-89
2022/04/05 09:08:24;;;;;;;9.80;4.20;;;7.90;99.90;;;;;;4978150;28;20042;-89
2022/04/05 09:11:02;;;;;;;17.57;14.83;;;8.40;99.90;;;;;;4978548;28;20053;-89
2022/04/05 09:13:27;;;;;;;30.30;27.30;;;8.10;99.90;;;;;;4994801;28;20054;-89
2022/04/05 09:15:58;;;;;;;21.05;18.83;;;7.70;99.90;;;;;;4995737;28;20046;-89
2022/04/05 09:18:48;;;;;;;15.65;11.35;;;8.10;99.90;;;;;;4977563;28;20379;-89
2022/04/05 09:21:14;;;;;;;14.80;9.70;;;8.90;99.90;;;;;;4970833;28;20376;-89
2022/04/05 09:23:42;;;;;;;17.50;15.70;;;7.90;99.90;;;;;;4995506;28;20121;-88
2022/04/05 09:26:30;;;;;;;14.00;8.23;;;8.80;99.90;;;;;;4994811;28;20038;-90
2022/04/05 09:29:08;;;;;;;11.60;5.10;;;7.90;99.90;;;;;;4976946;28;20133;-90
2022/04/05 09:31:43;;;;;;;10.05;4.18;;;7.90;99.90;;;;;;4977705;28;20446;-90
2022/04/05 09:34:12;;;;;;;17.90;8.85;;;7.70;99.90;;;;;;4977503;28;20058;-90
2022/04/05 09:36:48;;;;;;;11.18;5.13;;;7.00;99.90;;;;;;4995217;28;20042;-89
2022/04/05 09:39:16;;;;;;;8.60;2.85;;;7.90;99.90;;;;;;4977731;28;20129;-88
2022/04/05 09:41:43;;;;;;;6.10;2.08;;;8.40;99.90;;;;;;4976972;28;20046;-87
2022/04/05 09:44:29;;;;;;;8.45;2.08;;;7.80;99.90;;;;;;4995610;28;20053;-88
2022/04/05 09:47:17;;;;;;;6.28;2.00;;;8.20;99.90;;;;;;4977718;28;20521;-89
2022/04/05 09:49:44;;;;;;;5.75;2.03;;;9.20;99.90;;;;;;4978328;28;20072;-88
2022/04/05 09:52:32;;;;;;;5.13;1.70;;;8.00;99.90;;;;;;4977726;28;20106;-87
2022/04/05 09:55:18;;;;;;;7.03;2.00;;;8.10;99.90;;;;;;4976555;28;20047;-87
2022/04/05 09:57:45;;;;;;;6.43;1.80;;;8.20;99.90;;;;;;4961815;28;20042;-88
2022/04/05 10:00:17;;;;;;;5.28;1.90;;;8.20;99.90;;;;;;4977007;28;20498;-88
2022/04/05 10:03:08;;;;;;;5.22;1.70;;;8.30;99.90;;;;;;4994437;28;20057;-88
2022/04/05 10:05:35;;;;;;;7.00;2.10;;;8.10;99.90;;;;;;4972601;28;20054;-88
2022/04/05 10:08:02;;;;;;;6.45;2.20;;;8.20;99.90;;;;;;4994277;28;20104;-88
2022/04/05 10:10:28;;;;;;;6.40;2.22;;;8.40;99.90;;;;;;4993947;28;20077;-89
2022/04/05 10:12:54;;;;;;;7.72;2.25;;;8.30;99.90;;;;;;4994838;28;20466;-88
2022/04/05 10:15:24;;;;;;;7.05;2.25;;;8.40;99.90;;;;;;4976123;28;20096;-89
2022/04/05 10:18:06;;;;;;;6.82;2.30;;;8.50;99.90;;;;;;4993863;28;20214;-87
2022/04/05 10:20:34;;;;;;;7.70;2.25;;;8.60;99.90;;;;;;5010524;23;20054;-87
2022/04/05 10:23:04;;;;;;;8.20;2.40;;;9.20;99.90;;;;;;5048852;23;20052;-88
2022/04/05 10:25:34;;;;;;;6.70;2.38;;;9.10;99.90;;;;;;5053630;28;20486;-92
2022/04/05 10:28:03;;;;;;;6.47;2.40;;;9.10;99.90;;;;;;5035831;28;20041;-88
2022/04/05 10:31:13;;;;;;;7.45;2.78;;;8.60;99.90;;;;;;5034529;28;20511;-88
2022/04/05 10:34:14;;;;;;;8.05;2.60;;;8.60;99.90;;;;;;5035598;28;20049;-88
2022/04/05 10:37:10;;;;;;;6.97;2.40;;;8.50;99.90;;;;;;5034631;28;20473;-88
2022/04/05 10:39:37;;;;;;;7.80;2.85;;;8.60;99.90;;;;;;5035842;28;20095;-91
2022/04/05 10:42:09;;;;;;;7.95;2.83;;;8.40;99.90;;;;;;5035809;28;20049;-88
2022/04/05 10:44:36;;;;;;;8.77;2.88;;;8.00;99.90;;;;;;5053390;28;20045;-90
2022/04/05 10:47:09;;;;;;;8.77;3.17;;;8.70;99.90;;;;;;5037250;28;20396;-92
2022/04/05 10:49:42;;;;;;;8.63;3.40;;;9.10;99.90;;;;;;5036518;28;20041;-93
2022/04/05 10:52:18;;;;;;;8.00;3.10;;;8.80;99.90;;;;;;5039709;28;20284;-92
2022/04/05 10:55:11;;;;;;;9.30;3.40;;;8.40;99.90;;;;;;5056237;28;20280;-94
2022/04/05 10:57:38;;;;;;;9.40;3.97;;;8.90;99.90;;;;;;5036828;28;20045;-94
2022/04/05 11:00:22;;;;;;;9.10;3.67;;;8.80;99.90;;;;;;5050252;28;20060;-90
2022/04/05 11:03:04;;;;;;;9.98;3.97;;;8.90;99.90;;;;;;5046534;28;20102;-91
2022/04/05 11:05:38;;;;;;;9.80;3.95;;;9.80;99.90;;;;;;5027733;28;20056;-91
2022/04/05 11:08:14;;;;;;;10.05;4.53;;;9.40;99.90;;;;;;5043463;28;20086;-93
2022/04/05 11:10:39;;;;;;;11.27;4.77;;;9.40;99.90;;;;;;5042191;28;20036;-92
2022/04/05 11:13:30;;;;;;;10.17;4.43;;;8.70;99.90;;;;;;5034018;28;20191;-93
2022/04/05 11:15:57;;;;;;;12.60;4.65;;;8.80;99.90;;;;;;5041287;28;20152;-95
2022/04/05 11:18:26;;;;;;;11.00;4.80;;;10.10;99.90;;;;;;5029130;28;20047;-95
2022/04/05 11:20:54;;;;;;;12.25;4.82;;;9.30;99.90;;;;;;5033279;28;20052;-95
2022/04/05 11:23:36;;;;;;;10.85;4.47;;;9.00;99.90;;;;;;5044389;28;20080;-95
2022/04/05 11:26:25;;;;;;;10.23;4.60;;;9.30;99.90;;;;;;5047685;28;20484;-95
2022/04/05 11:28:51;;;;;;;11.23;5.68;;;8.70;99.90;;;;;;5041663;23;20174;-94
2022/04/05 11:31:28;;;;;;;10.88;5.38;;;10.40;99.90;;;;;;5034528;28;20044;-95
2022/04/05 11:33:53;;;;;;;12.40;6.55;;;9.80;99.90;;;;;;5049064;28;20134;-93
2022/04/05 11:36:25;;;;;;;11.10;5.57;;;10.10;99.90;;;;;;5031818;28;20087;-93
2022/04/05 11:38:58;;;;;;;11.50;5.10;;;10.50;99.90;;;;;;5052474;28;20037;-88
2022/04/05 11:41:31;;;;;;;10.35;5.30;;;10.40;99.90;;;;;;5051095;28;20373;-90
2022/04/05 11:44:18;;;;;;;10.68;5.03;;;10.70;99.90;;;;;;5051661;28;20062;-90
2022/04/05 11:46:54;;;;;;;9.40;4.70;;;10.60;99.90;;;;;;5033190;28;20037;-90
2022/04/05 11:49:39;;;;;;;16.33;8.82;;;12.00;99.90;;;;;;5051720;28;20144;-90
2022/04/05 11:52:15;;;;;;;12.52;7.60;;;10.20;99.90;;;;;;5028564;28;20048;-90
2022/04/05 11:57:42;;;;;;;9.50;4.10;;;11.70;99.90;;;;;;5051021;28;20099;-90
2022/04/05 12:00:09;;;;;;;8.23;3.63;;;10.20;99.90;;;;;;5031519;28;20094;-89
2022/04/05 12:02:35;;;;;;;8.20;3.38;;;10.80;99.90;;;;;;5053092;28;20033;-93
2022/04/05 12:05:00;;;;;;;8.75;3.67;;;11.00;99.90;;;;;;5034611;28;20377;-93
2022/04/05 12:07:32;;;;;;;7.95;3.30;;;10.50;99.90;;;;;;5053126;28;20072;-93
2022/04/05 12:09:58;;;;;;;8.20;3.40;;;10.80;99.90;;;;;;5036468;28;20045;-93
2022/04/05 12:12:25;;;;;;;9.23;4.07;;;10.40;99.90;;;;;;5038751;28;20476;-94
2022/04/05 12:14:50;;;;;;;9.63;3.35;;;11.10;99.90;;;;;;5056123;28;20496;-92
2022/04/05 12:17:21;;;;;;;9.23;3.70;;;10.20;99.90;;;;;;5038230;28;20071;-92
2022/04/05 12:19:47;;;;;;;9.77;4.35;;;10.10;99.90;;;;;;5056523;28;20048;-91
2022/04/05 12:22:18;;;;;;;9.35;4.20;;;10.20;99.90;;;;;;5037046;28;20048;-93
2022/04/05 12:24:53;;;;;;;9.93;4.07;;;10.10;99.90;;;;;;5056868;28;20083;-91
2022/04/05 12:27:23;;;;;;;9.65;4.25;;;11.40;99.90;;;;;;5056615;28;20049;-92
2022/04/05 12:29:55;;;;;;;9.10;4.10;;;11.40;99.90;;;;;;5038064;28;20041;-91
2022/04/05 12:32:20;;;;;;;14.05;7.13;;;10.40;99.90;;;;;;5038388;28;20061;-90
2022/04/05 12:34:46;;;;;;;11.30;5.28;;;10.30;99.90;;;;;;5038528;28;20094;-92
2022/04/05 12:37:16;;;;;;;9.68;4.45;;;10.90;99.90;;;;;;5037404;28;20191;-92
2022/04/05 12:39:47;;;;;;;9.65;3.97;;;10.50;99.90;;;;;;5038181;28;20048;-92
2022/04/05 12:42:13;;;;;;;26.05;17.50;;;11.20;99.90;;;;;;5038123;28;20056;-94
2022/04/05 12:44:41;;;;;;;10.15;4.25;;;10.30;99.90;;;;;;5055629;28;20385;-94
2022/04/05 12:47:32;;;;;;;9.73;4.72;;;10.40;99.90;;;;;;5056181;28;20491;-93
2022/04/05 12:50:12;;;;;;;10.98;6.10;;;11.60;99.90;;;;;;5061620;23;20482;-92
2022/04/05 12:52:39;;;;;;;11.02;6.18;;;10.70;99.90;;;;;;4979792;28;20046;-92
2022/04/05 12:55:14;;;;;;;9.82;4.60;;;10.50;99.90;;;;;;4996390;28;20046;-93
2022/04/05 12:57:51;;;;;;;10.35;4.75;;;10.70;99.90;;;;;;4997393;28;20046;-92
2022/04/05 13:00:26;;;;;;;10.50;4.70;;;10.40;99.90;;;;;;4998041;28;20057;-90